Time;durP1;ratioP1;P1;durP2;ratioP2;P2;SDS_P1;SDS_P2;PMS_P1;PMS_P2;Temp;Humidity;BMP_temperature;BMP_pressure;BME280_temperature;BME280_humidity;BME280_pressure;Samples;Min_cycle;Max_cycle;Signal;HPM_P1;HPM_P2
2023/10/21 00:02:14;;;;;;;;;;;17.80;99.90;;;;;;5033898;28;19905;-68
2023/10/21 00:04:39;;;;;;;;;;;17.70;99.90;;;;;;5034092;28;19912;-68
2023/10/21 00:07:05;;;;;;;;;;;17.60;99.90;;;;;;5032680;28;19940;-68
2023/10/21 00:09:30;;;;;;;;;;;17.60;99.90;;;;;;5034324;28;20349;-68
2023/10/21 00:11:56;;;;;;;;;;;17.40;99.90;;;;;;5034111;28;19987;-68
2023/10/21 00:14:21;;;;;;;;;;;17.40;99.90;;;;;;5016057;28;19905;-68
2023/10/21 00:16:48;;;;;;;;;;;17.30;99.90;;;;;;5034317;28;19906;-68
2023/10/21 00:19:14;;;;;;;;;;;17.20;99.90;;;;;;5016344;28;19905;-68
2023/10/21 00:21:39;;;;;;;;;;;17.10;99.90;;;;;;4999098;28;19963;-68
2023/10/21 00:24:05;;;;;;;;;;;17.00;99.90;;;;;;5014269;28;19910;-68
2023/10/21 00:26:30;;;;;;;;;;;16.90;99.90;;;;;;5014438;28;19906;-68
2023/10/21 00:28:56;;;;;;;;;;;16.80;99.90;;;;;;4996287;28;19996;-68
2023/10/21 00:31:21;;;;;;;;;;;16.80;99.90;;;;;;4996670;28;19905;-68
2023/10/21 00:33:47;;;;;;;;;;;16.70;99.90;;;;;;5014182;28;20272;-68
2023/10/21 00:36:12;;;;;;;;;;;16.70;99.90;;;;;;5014136;28;19912;-68
2023/10/21 00:38:38;;;;;;;;;;;16.60;99.90;;;;;;4996250;28;19913;-68
2023/10/21 00:41:03;;;;;;;;;;;16.50;99.90;;;;;;5014102;28;19951;-68
2023/10/21 00:43:37;;;;;;;;;;;16.40;99.90;;;;;;5013678;28;19922;-68
2023/10/21 00:46:14;;;;;;;;;;;16.40;99.90;;;;;;5014090;28;19905;-68
2023/10/21 00:48:39;;;;;;;;;;;16.30;99.90;;;;;;5014081;28;20357;-68
2023/10/21 00:51:05;;;;;;;;;;;16.20;99.90;;;;;;5013709;28;20024;-68
2023/10/21 00:53:31;;;;;;;;;;;16.10;99.90;;;;;;5013738;28;19951;-68
2023/10/21 00:55:57;;;;;;;;;;;16.10;99.90;;;;;;4996422;28;19928;-68
2023/10/21 00:58:25;;;;;;;;;;;16.00;99.90;;;;;;5015632;28;20095;-68
2023/10/21 01:00:51;;;;;;;;;;;15.90;99.90;;;;;;5017614;28;20000;-68
2023/10/21 01:03:16;;;;;;;;;;;15.80;99.90;;;;;;5016388;28;19953;-68
2023/10/21 01:05:42;;;;;;;;;;;15.70;99.90;;;;;;4999865;28;19909;-68
2023/10/21 01:08:07;;;;;;;;;;;15.60;99.90;;;;;;5017472;28;20008;-69
2023/10/21 01:10:33;;;;;;;;;;;15.50;99.90;;;;;;5017332;28;19909;-68
2023/10/21 01:12:58;;;;;;;;;;;15.40;99.90;;;;;;5017376;28;19948;-69
2023/10/21 01:15:24;;;;;;;;;;;15.40;99.90;;;;;;5017334;28;20264;-68
2023/10/21 01:17:50;;;;;;;;;;;15.30;99.90;;;;;;5017296;28;19906;-68
2023/10/21 01:20:16;;;;;;;;;;;15.30;99.90;;;;;;5022518;28;19921;-68
2023/10/21 01:22:45;;;;;;;;;;;15.40;99.90;;;;;;5036701;28;19914;-69
2023/10/21 01:25:11;;;;;;;;;;;15.50;99.90;;;;;;5037086;28;19904;-68
2023/10/21 01:27:36;;;;;;;;;;;15.60;99.90;;;;;;5036929;28;20364;-68
2023/10/21 01:30:05;;;;;;;;;;;15.80;99.90;;;;;;5037154;28;19916;-68
2023/10/21 01:32:31;;;;;;;;;;;15.90;99.90;;;;;;5036817;28;19916;-68
2023/10/21 01:34:57;;;;;;;;;;;16.00;99.90;;;;;;5036755;28;19904;-68
2023/10/21 01:37:22;;;;;;;;;;;16.10;99.90;;;;;;5037022;28;19951;-69
2023/10/21 01:39:48;;;;;;;;;;;16.20;99.90;;;;;;5036406;28;20335;-69
2023/10/21 01:42:13;;;;;;;;;;;16.30;99.90;;;;;;5036633;28;20341;-69
2023/10/21 01:44:39;;;;;;;;;;;16.30;99.90;;;;;;5036830;28;20368;-69
2023/10/21 01:47:04;;;;;;;;;;;16.40;99.90;;;;;;5019080;28;19905;-68
2023/10/21 01:49:31;;;;;;;;;;;16.50;99.90;;;;;;5036388;28;20361;-69
2023/10/21 01:51:57;;;;;;;;;;;16.40;99.90;;;;;;5036460;28;19995;-69
2023/10/21 01:54:22;;;;;;;;;;;16.30;99.90;;;;;;5036626;28;20012;-69
2023/10/21 01:56:48;;;;;;;;;;;16.20;99.90;;;;;;5036053;28;19905;-68
2023/10/21 01:59:14;;;;;;;;;;;16.10;99.90;;;;;;5018862;28;19905;-69
2023/10/21 02:01:40;;;;;;;;;;;16.00;99.90;;;;;;5036223;28;19954;-69
2023/10/21 02:04:06;;;;;;;;;;;15.90;99.90;;;;;;5018858;28;20003;-69
2023/10/21 02:06:31;;;;;;;;;;;15.90;99.90;;;;;;5036182;28;19974;-69
2023/10/21 02:08:57;;;;;;;;;;;15.80;99.90;;;;;;5036018;28;19972;-69
2023/10/21 02:11:22;;;;;;;;;;;15.70;99.90;;;;;;5035686;28;19909;-69
2023/10/21 02:13:48;;;;;;;;;;;15.60;99.90;;;;;;5036025;28;20249;-69
2023/10/21 02:16:13;;;;;;;;;;;15.40;99.90;;;;;;5018369;28;19936;-69
2023/10/21 02:18:39;;;;;;;;;;;15.30;99.90;;;;;;5018386;28;19905;-69
2023/10/21 02:21:05;;;;;;;;;;;15.20;99.90;;;;;;5017827;28;19924;-69
2023/10/21 02:23:31;;;;;;;;;;;15.10;99.90;;;;;;5018034;28;20436;-69
2023/10/21 02:26:04;;;;;;;;;;;14.90;99.90;;;;;;5018046;28;19948;-69
2023/10/21 02:28:29;;;;;;;;;;;14.90;99.90;;;;;;5018178;28;19904;-69
2023/10/21 02:30:55;;;;;;;;;;;14.80;99.90;;;;;;5035644;28;20388;-69
2023/10/21 02:33:21;;;;;;;;;;;14.80;99.90;;;;;;5036021;28;19909;-69
2023/10/21 02:35:50;;;;;;;;;;;14.70;99.90;;;;;;5035625;28;19905;-69
2023/10/21 02:38:16;;;;;;;;;;;14.70;99.90;;;;;;5035292;28;19909;-69
2023/10/21 02:40:42;;;;;;;;;;;14.70;99.90;;;;;;5017794;28;20415;-69
2023/10/21 02:43:09;;;;;;;;;;;14.70;99.90;;;;;;5017680;28;20003;-69
2023/10/21 02:45:35;;;;;;;;;;;14.70;99.90;;;;;;5035424;28;20000;-69
2023/10/21 02:48:00;;;;;;;;;;;14.70;99.90;;;;;;5017573;28;20382;-69
2023/10/21 02:50:26;;;;;;;;;;;14.70;99.90;;;;;;5035525;28;19956;-69
2023/10/21 02:52:52;;;;;;;;;;;14.60;99.90;;;;;;5035337;28;19935;-69
2023/10/21 02:55:18;;;;;;;;;;;14.60;99.90;;;;;;5035221;28;19959;-69
2023/10/21 02:57:44;;;;;;;;;;;14.60;99.90;;;;;;5017905;28;19909;-69
2023/10/21 03:00:15;;;;;;;;;;;14.70;99.90;;;;;;5017509;28;19913;-68
2023/10/21 03:02:41;;;;;;;;;;;14.70;99.90;;;;;;5035152;28;19905;-68
2023/10/21 03:05:07;;;;;;;;;;;14.70;99.90;;;;;;5035058;28;19909;-68
2023/10/21 03:07:33;;;;;;;;;;;14.70;99.90;;;;;;5016970;28;19999;-68
2023/10/21 03:09:59;;;;;;;;;;;14.80;99.90;;;;;;5035029;28;20016;-69
2023/10/21 03:12:24;;;;;;;;;;;14.90;99.90;;;;;;5035371;28;19932;-68
2023/10/21 03:14:50;;;;;;;;;;;15.00;99.90;;;;;;5034709;28;19908;-68
2023/10/21 03:17:15;;;;;;;;;;;15.10;99.90;;;;;;5034787;28;19909;-68
2023/10/21 03:19:41;;;;;;;;;;;15.00;99.90;;;;;;5034529;28;19905;-68
2023/10/21 03:22:06;;;;;;;;;;;14.90;99.90;;;;;;5017000;28;20261;-68
2023/10/21 03:24:32;;;;;;;;;;;14.90;99.90;;;;;;5034974;28;19912;-68
2023/10/21 03:26:57;;;;;;;;;;;14.80;99.90;;;;;;5034704;28;19995;-68
2023/10/21 03:29:23;;;;;;;;;;;14.80;99.90;;;;;;5016845;28;20307;-68
2023/10/21 03:31:48;;;;;;;;;;;14.70;99.90;;;;;;5016918;28;20395;-68
2023/10/21 03:34:14;;;;;;;;;;;14.70;99.90;;;;;;5034323;28;20353;-68
2023/10/21 03:36:39;;;;;;;;;;;14.70;99.90;;;;;;5016509;28;20055;-68
2023/10/21 03:39:05;;;;;;;;;;;14.60;99.90;;;;;;5034748;28;20007;-68
2023/10/21 03:41:31;;;;;;;;;;;14.60;99.90;;;;;;5034777;28;20006;-68
2023/10/21 03:43:57;;;;;;;;;;;14.50;99.90;;;;;;5034170;28;19963;-68
2023/10/21 03:46:24;;;;;;;;;;;14.50;99.90;;;;;;5034426;28;19912;-67
2023/10/21 03:48:50;;;;;;;;;;;14.50;99.90;;;;;;5016651;28;19905;-68
2023/10/21 03:51:16;;;;;;;;;;;14.50;99.90;;;;;;5016542;28;19935;-68
2023/10/21 03:53:42;;;;;;;;;;;14.50;99.90;;;;;;5034039;28;20361;-68
2023/10/21 03:56:08;;;;;;;;;;;14.50;99.90;;;;;;5034294;28;19959;-68
2023/10/21 03:58:34;;;;;;;;;;;14.50;99.90;;;;;;5016787;28;19905;-68
2023/10/21 04:00:59;;;;;;;;;;;14.50;99.90;;;;;;5034226;28;19912;-68
2023/10/21 04:03:25;;;;;;;;;;;14.40;99.90;;;;;;5016865;28;19913;-68
2023/10/21 04:05:51;;;;;;;;;;;14.40;99.90;;;;;;5034153;28;19905;-68
2023/10/21 04:08:17;;;;;;;;;;;14.40;99.90;;;;;;5034114;28;19905;-68
2023/10/21 04:10:42;;;;;;;;;;;14.30;99.90;;;;;;5016359;28;19916;-68
2023/10/21 04:13:08;;;;;;;;;;;14.20;99.90;;;;;;5016431;28;19916;-68
2023/10/21 04:15:34;;;;;;;;;;;14.20;99.90;;;;;;5034074;28;20360;-68
2023/10/21 04:17:59;;;;;;;;;;;14.10;99.90;;;;;;5033760;28;19944;-68
2023/10/21 04:20:25;;;;;;;;;;;14.00;99.90;;;;;;5033772;28;19967;-68
2023/10/21 04:22:50;;;;;;;;;;;14.00;99.90;;;;;;5034280;28;19909;-68
2023/10/21 04:25:16;;;;;;;;;;;14.00;99.90;;;;;;5033709;28;19906;-68
2023/10/21 04:27:41;;;;;;;;;;;14.00;99.90;;;;;;5033969;28;19905;-68
2023/10/21 04:30:10;;;;;;;;;;;14.00;99.90;;;;;;5033596;28;20261;-68
2023/10/21 04:32:36;;;;;;;;;;;13.90;99.90;;;;;;5034497;28;19957;-68
2023/10/21 04:35:02;;;;;;;;;;;13.90;99.90;;;;;;5037855;28;20386;-68
2023/10/21 04:37:27;;;;;;;;;;;13.80;99.90;;;;;;5020143;28;20012;-68
2023/10/21 04:39:53;;;;;;;;;;;13.80;99.90;;;;;;5037762;28;19905;-68
2023/10/21 04:42:18;;;;;;;;;;;13.70;99.90;;;;;;5037762;28;20356;-68
2023/10/21 04:44:44;;;;;;;;;;;13.70;99.90;;;;;;5020073;28;19978;-68
2023/10/21 04:47:10;;;;;;;;;;;13.70;99.90;;;;;;5020292;28;19909;-68
2023/10/21 04:49:36;;;;;;;;;;;13.60;99.90;;;;;;5019781;28;20365;-68
2023/10/21 04:52:03;;;;;;;;;;;13.60;99.90;;;;;;5037581;28;19916;-68
2023/10/21 04:54:28;;;;;;;;;;;13.60;99.90;;;;;;5037827;28;19905;-68
2023/10/21 04:56:54;;;;;;;;;;;13.50;99.90;;;;;;5037194;28;19950;-68
2023/10/21 04:59:20;;;;;;;;;;;13.60;99.90;;;;;;5020228;28;19905;-68
2023/10/21 05:01:45;;;;;;;;;;;13.60;99.90;;;;;;5037348;28;20319;-68
2023/10/21 05:04:11;;;;;;;;;;;13.60;99.90;;;;;;5019661;28;19905;-68
2023/10/21 05:06:37;;;;;;;;;;;13.50;99.90;;;;;;5019502;28;20345;-68
2023/10/21 05:09:03;;;;;;;;;;;13.50;99.90;;;;;;5037685;28;19951;-68
2023/10/21 05:11:28;;;;;;;;;;;13.50;99.90;;;;;;5037174;28;19916;-68
2023/10/21 05:13:54;;;;;;;;;;;13.50;99.90;;;;;;5037337;28;20043;-68
2023/10/21 05:16:20;;;;;;;;;;;13.50;99.90;;;;;;5037362;28;19912;-68
2023/10/21 05:18:45;;;;;;;;;;;13.40;99.90;;;;;;5037055;28;19971;-68
2023/10/21 05:21:11;;;;;;;;;;;13.40;99.90;;;;;;5036604;28;19921;-68
2023/10/21 05:23:36;;;;;;;;;;;13.40;99.90;;;;;;5036887;28;19908;-68
2023/10/21 05:26:02;;;;;;;;;;;13.30;99.90;;;;;;5019221;28;20003;-68
2023/10/21 05:28:27;;;;;;;;;;;13.30;99.90;;;;;;5036915;28;19996;-68
2023/10/21 05:30:53;;;;;;;;;;;13.30;99.90;;;;;;5036534;28;19909;-68
2023/10/21 05:33:19;;;;;;;;;;;13.30;99.90;;;;;;5019048;28;20007;-68
2023/10/21 05:35:44;;;;;;;;;;;13.30;99.90;;;;;;5036791;28;19905;-67
2023/10/21 05:38:10;;;;;;;;;;;13.20;99.90;;;;;;5018993;28;19967;-60
2023/10/21 05:40:35;;;;;;;;;;;13.30;99.90;;;;;;5036656;28;19909;-65
2023/10/21 05:43:01;;;;;;;;;;;13.20;99.90;;;;;;5036269;28;19905;-61
2023/10/21 05:45:27;;;;;;;;;;;13.20;99.90;;;;;;5017623;28;20268;-71
2023/10/21 05:47:53;;;;;;;;;;;13.20;99.90;;;;;;5036500;28;19905;-69
2023/10/21 05:50:20;;;;;;;;;;;13.20;99.90;;;;;;5018282;28;19916;-68
2023/10/21 05:52:46;;;;;;;;;;;13.10;99.90;;;;;;5039134;28;19923;-69
2023/10/21 05:55:12;;;;;;;;;;;13.10;99.90;;;;;;5045115;28;19948;-69
2023/10/21 05:57:38;;;;;;;;;;;13.10;99.90;;;;;;5018596;28;19956;-68
2023/10/21 06:00:05;;;;;;;;;;;13.00;99.90;;;;;;5036179;28;20378;-67
2023/10/21 06:02:31;;;;;;;;;;;13.00;99.90;;;;;;5018504;28;19994;-68
2023/10/21 06:04:57;;;;;;;;;;;13.00;99.90;;;;;;5036354;28;19905;-67
2023/10/21 06:07:22;;;;;;;;;;;13.00;99.90;;;;;;5036444;28;19951;-67
2023/10/21 06:09:48;;;;;;;;;;;12.90;99.90;;;;;;5034425;28;19908;-67
2023/10/21 06:12:13;;;;;;;;;;;12.90;99.90;;;;;;5015990;28;20357;-68
2023/10/21 06:14:39;;;;;;;;;;;12.90;99.90;;;;;;5014972;28;19906;-69
2023/10/21 06:17:04;;;;;;;;;;;12.90;99.90;;;;;;5015874;28;19912;-70
2023/10/21 06:19:30;;;;;;;;;;;12.90;99.90;;;;;;5016565;28;19931;-70
2023/10/21 06:21:56;;;;;;;;;;;12.90;99.90;;;;;;5030344;28;19921;-70
2023/10/21 06:24:21;;;;;;;;;;;12.90;99.90;;;;;;5016071;28;19905;-70
2023/10/21 06:26:46;;;;;;;;;;;12.90;99.90;;;;;;5016266;28;19947;-71
2023/10/21 06:29:12;;;;;;;;;;;13.00;99.90;;;;;;5016184;28;20265;-69
2023/10/21 06:31:37;;;;;;;;;;;13.00;99.90;;;;;;5015937;28;19910;-70
2023/10/21 06:34:03;;;;;;;;;;;13.10;99.90;;;;;;5015815;28;19905;-70
2023/10/21 06:36:29;;;;;;;;;;;13.10;99.90;;;;;;5015525;28;19913;-70
2023/10/21 06:38:54;;;;;;;;;;;13.20;99.90;;;;;;5015490;28;19975;-70
2023/10/21 06:41:20;;;;;;;;;;;13.30;99.90;;;;;;5015435;28;19905;-70
2023/10/21 06:43:46;;;;;;;;;;;13.30;99.90;;;;;;5015649;28;19909;-70
2023/10/21 06:46:13;;;;;;;;;;;13.40;99.90;;;;;;5015592;28;19913;-70
2023/10/21 06:48:39;;;;;;;;;;;13.40;99.90;;;;;;5015608;28;19912;-70
2023/10/21 06:51:04;;;;;;;;;;;13.40;99.90;;;;;;5014364;28;19999;-69
2023/10/21 06:53:30;;;;;;;;;;;13.50;99.90;;;;;;5014278;28;19963;-70
2023/10/21 06:55:56;;;;;;;;;;;13.50;99.90;;;;;;5015169;28;19913;-70
2023/10/21 06:58:21;;;;;;;;;;;13.60;99.90;;;;;;5015479;28;19905;-69
2023/10/21 07:00:47;;;;;;;;;;;13.60;99.90;;;;;;5015428;28;19959;-70
2023/10/21 07:03:12;;;;;;;;;;;13.70;99.90;;;;;;5015574;28;20265;-70
2023/10/21 07:05:38;;;;;;;;;;;13.70;99.90;;;;;;5015583;28;19909;-70
2023/10/21 07:08:04;;;;;;;;;;;13.80;99.90;;;;;;5013995;28;20364;-70
2023/10/21 07:10:30;;;;;;;;;;;13.80;99.90;;;;;;5015119;28;19916;-70
2023/10/21 07:12:57;;;;;;;;;;;13.90;99.90;;;;;;5014041;28;19963;-70
2023/10/21 07:15:28;;;;;;;;;;;14.10;99.90;;;;;;5015178;28;19912;-70
2023/10/21 07:17:54;;;;;;;;;;;14.20;99.90;;;;;;5015163;28;19948;-70
2023/10/21 07:20:20;;;;;;;;;;;14.40;99.90;;;;;;5013524;28;19971;-70
2023/10/21 07:22:45;;;;;;;;;;;14.80;99.90;;;;;;5015150;28;19909;-70
2023/10/21 07:25:11;;;;;;;;;;;15.30;99.90;;;;;;5015225;28;19906;-69
2023/10/21 07:27:36;;;;;;;;;;;16.00;99.90;;;;;;5030077;28;19941;-70
2023/10/21 07:30:03;;;;;;;;;;;16.60;99.90;;;;;;5014813;28;19956;-67
2023/10/21 07:32:29;;;;;;;;;;;17.30;99.90;;;;;;5014644;28;19909;-69
2023/10/21 07:34:55;;;;;;;;;;;17.80;99.90;;;;;;5013315;28;19906;-69
2023/10/21 07:37:20;;;;;;;;;;;18.30;99.90;;;;;;5013332;28;20360;-59
2023/10/21 07:39:46;;;;;;;;;;;18.90;99.90;;;;;;5014943;28;19909;-63
2023/10/21 07:42:12;;;;;;;;;;;19.20;99.90;;;;;;5014752;28;19913;-58
2023/10/21 07:44:38;;;;;;;;;;;19.70;99.90;;;;;;5014572;28;19905;-73
2023/10/21 07:47:04;;;;;;;;;;;20.10;99.90;;;;;;5014189;28;19911;-73
2023/10/21 07:49:30;;;;;;;;;;;20.50;99.90;;;;;;5029536;28;19914;-71
2023/10/21 07:51:55;;;;;;;;;;;20.50;99.90;;;;;;5013159;28;19910;-73
2023/10/21 07:54:21;;;;;;;;;;;20.80;99.90;;;;;;5014332;28;20367;-74
2023/10/21 07:56:46;;;;;;;;;;;20.90;99.90;;;;;;5012975;28;20275;-70
2023/10/21 07:59:12;;;;;;;;;;;21.30;99.90;;;;;;5014240;28;19906;-71
2023/10/21 08:01:38;;;;;;;;;;;21.60;99.90;;;;;;5033866;28;19956;-72
2023/10/21 08:04:03;;;;;;;;;;;21.90;99.90;;;;;;5021127;28;19906;-72
2023/10/21 08:06:29;;;;;;;;;;;22.30;99.90;;;;;;5048253;28;19913;-71
2023/10/21 08:08:55;;;;;;;;;;;22.80;99.80;;;;;;5033412;28;19995;-72
2023/10/21 08:11:21;;;;;;;;;;;23.30;98.60;;;;;;5049349;28;20335;-72
2023/10/21 08:13:46;;;;;;;;;;;23.90;96.90;;;;;;5033956;28;19915;-72
2023/10/21 08:16:12;;;;;;;;;;;24.30;95.60;;;;;;5033962;28;19904;-72
2023/10/21 08:18:39;;;;;;;;;;;24.30;94.60;;;;;;5049569;28;19905;-69
2023/10/21 08:21:05;;;;;;;;;;;24.10;94.40;;;;;;5049332;28;19921;-74
2023/10/21 08:23:31;;;;;;;;;;;24.00;94.60;;;;;;5034015;28;20116;-70
2023/10/21 08:25:57;;;;;;;;;;;24.30;94.10;;;;;;5049158;28;19909;-70
2023/10/21 08:28:24;;;;;;;;;;;24.80;93.40;;;;;;5033856;28;19905;-63
2023/10/21 08:30:49;;;;;;;;;;;25.40;92.40;;;;;;5032818;28;20288;-62
2023/10/21 08:33:15;;;;;;;;;;;25.20;91.60;;;;;;5033773;28;19915;-63
2023/10/21 08:35:41;;;;;;;;;;;24.60;92.50;;;;;;5049098;28;19928;-62
2023/10/21 08:38:06;;;;;;;;;;;23.90;93.40;;;;;;5033763;28;19909;-62
2023/10/21 08:40:35;;;;;;;;;;;23.30;95.30;;;;;;5033428;28;19912;-70
2023/10/21 08:43:01;;;;;;;;;;;22.80;96.40;;;;;;5033986;28;20304;-70
2023/10/21 08:45:27;;;;;;;;;;;22.30;97.50;;;;;;5033673;28;19905;-70
2023/10/21 08:47:54;;;;;;;;;;;22.00;98.30;;;;;;5048934;28;19954;-70
2023/10/21 08:50:20;;;;;;;;;;;21.80;99.10;;;;;;5033459;28;20298;-70
2023/10/21 08:52:47;;;;;;;;;;;21.90;99.50;;;;;;5033768;28;19959;-70
2023/10/21 08:55:12;;;;;;;;;;;22.20;99.30;;;;;;5033540;28;19905;-70
2023/10/21 08:57:38;;;;;;;;;;;22.40;99.10;;;;;;5048830;28;19935;-70
2023/10/21 09:00:05;;;;;;;;;;;22.50;99.20;;;;;;5032243;28;20353;-70
2023/10/21 09:02:30;;;;;;;;;;;22.90;98.70;;;;;;5033648;28;19967;-70
2023/10/21 09:04:56;;;;;;;;;;;23.50;97.90;;;;;;5048788;28;19916;-70
2023/10/21 09:07:22;;;;;;;;;;;23.70;97.00;;;;;;5033777;28;19912;-70
2023/10/21 09:09:48;;;;;;;;;;;23.70;96.40;;;;;;5049029;28;19960;-70
2023/10/21 09:12:13;;;;;;;;;;;23.60;96.60;;;;;;5033544;28;19916;-70
2023/10/21 09:14:49;;;;;;;;;;;23.30;96.90;;;;;;5048772;28;19905;-70
2023/10/21 09:17:14;;;;;;;;;;;23.20;96.70;;;;;;5033455;28;20390;-70
2023/10/21 09:19:41;;;;;;;;;;;23.30;96.80;;;;;;5035176;28;19905;-70
2023/10/21 09:22:19;;;;;;;;;;;23.30;96.30;;;;;;5037098;28;19905;-70
2023/10/21 09:24:45;;;;;;;;;;;24.00;96.20;;;;;;5036950;28;19939;-70
2023/10/21 09:27:13;;;;;;;;;;;25.50;94.00;;;;;;5036691;28;19941;-70
2023/10/21 09:29:39;;;;;;;;;;;27.10;89.60;;;;;;5036884;28;20012;-70
2023/10/21 09:32:04;;;;;;;;;;;28.10;81.90;;;;;;5036638;28;19949;-70
2023/10/21 09:34:32;;;;;;;;;;;28.50;77.10;;;;;;5036609;28;20368;-70
2023/10/21 09:37:02;;;;;;;;;;;29.20;72.60;;;;;;5019272;28;19905;-71
2023/10/21 09:39:29;;;;;;;;;;;30.00;70.80;;;;;;5036683;28;19909;-70
2023/10/21 09:41:54;;;;;;;;;;;30.60;68.40;;;;;;5036527;28;19912;-70
2023/10/21 09:44:20;;;;;;;;;;;31.10;66.20;;;;;;5036482;28;19905;-70
2023/10/21 09:46:46;;;;;;;;;;;31.60;64.10;;;;;;5036767;28;19955;-70
2023/10/21 09:49:15;;;;;;;;;;;31.60;62.20;;;;;;5036287;28;19905;-70
2023/10/21 09:52:09;;;;;;;;;;;31.10;59.40;;;;;;5034964;28;20284;-70
2023/10/21 09:54:53;;;;;;;;;;;30.50;60.20;;;;;;5031932;28;20007;-70
2023/10/21 09:57:19;;;;;;;;;;;30.70;59.80;;;;;;5035898;28;19912;-69
2023/10/21 09:59:46;;;;;;;;;;;30.90;57.80;;;;;;5036366;28;19909;-69
2023/10/21 10:02:12;;;;;;;;;;;30.00;58.00;;;;;;5036104;28;19974;-69
2023/10/21 10:04:38;;;;;;;;;;;29.90;58.10;;;;;;5035859;28;19904;-70
2023/10/21 10:07:07;;;;;;;;;;;30.30;58.10;;;;;;5018318;28;19905;-70
2023/10/21 10:09:36;;;;;;;;;;;30.80;57.60;;;;;;5035735;28;19909;-70
2023/10/21 10:12:06;;;;;;;;;;;31.00;57.10;;;;;;5035941;28;20014;-71
2023/10/21 10:14:33;;;;;;;;;;;30.90;56.60;;;;;;5034838;28;19905;-70
2023/10/21 10:16:59;;;;;;;;;;;31.00;56.50;;;;;;5035888;28;19906;-70
2023/10/21 10:19:37;;;;;;;;;;;30.30;58.40;;;;;;5018044;28;19912;-70
2023/10/21 10:22:19;;;;;;;;;;;29.80;59.10;;;;;;5035772;28;20325;-70
2023/10/21 10:24:49;;;;;;;;;;;30.00;59.60;;;;;;5035556;28;19905;-70
2023/10/21 10:27:16;;;;;;;;;;;30.70;58.80;;;;;;5035743;28;19909;-70
2023/10/21 10:29:42;;;;;;;;;;;31.30;59.30;;;;;;5035609;28;19913;-70
2023/10/21 10:32:14;;;;;;;;;;;31.80;57.10;;;;;;5035148;28;19913;-70
2023/10/21 10:34:53;;;;;;;;;;;32.20;55.10;;;;;;5017794;28;19928;-70
2023/10/21 10:37:29;;;;;;;;;;;32.80;54.50;;;;;;5035524;28;19909;-70
2023/10/21 10:39:55;;;;;;;;;;;33.00;56.30;;;;;;5035506;28;20355;-70
2023/10/21 10:42:24;;;;;;;;;;;33.30;55.10;;;;;;5035368;28;19905;-70
2023/10/21 10:44:50;;;;;;;;;;;33.60;54.60;;;;;;5017255;28;20258;-70
2023/10/21 10:47:16;;;;;;;;;;;33.60;51.70;;;;;;5017538;28;19909;-70
2023/10/21 10:50:16;;;;;;;;;;;33.80;53.40;;;;;;5035148;28;19916;-70
2023/10/21 10:52:41;;;;;;;;;;;33.90;52.30;;;;;;5017529;28;19959;-65
2023/10/21 10:55:11;;;;;;;;;;;34.20;49.70;;;;;;5017257;28;19905;-64
2023/10/21 10:57:36;;;;;;;;;;;33.80;51.60;;;;;;5035622;28;19913;-65
2023/10/21 11:00:03;;;;;;;;;;;33.00;53.00;;;;;;5035067;28;19975;-64
2023/10/21 11:02:40;;;;;;;;;;;32.40;52.10;;;;;;5034888;28;20424;-64
2023/10/21 11:05:06;;;;;;;;;;;32.10;51.10;;;;;;5034930;28;19916;-72
2023/10/21 11:07:32;;;;;;;;;;;32.10;51.60;;;;;;5017113;28;20272;-73
2023/10/21 11:10:01;;;;;;;;;;;32.30;50.70;;;;;;5034404;28;19916;-73
2023/10/21 11:12:27;;;;;;;;;;;32.50;50.70;;;;;;5034854;28;19920;-73
2023/10/21 11:14:53;;;;;;;;;;;32.80;54.70;;;;;;5034690;28;20264;-74
2023/10/21 11:17:18;;;;;;;;;;;32.60;53.60;;;;;;5016928;28;19905;-74
2023/10/21 11:19:44;;;;;;;;;;;32.90;54.70;;;;;;5017036;28;19996;-73
2023/10/21 11:22:25;;;;;;;;;;;33.00;53.20;;;;;;5034793;28;20226;-73
2023/10/21 11:24:51;;;;;;;;;;;33.00;55.30;;;;;;5034544;28;20025;-72
2023/10/21 11:27:16;;;;;;;;;;;33.00;53.20;;;;;;5034746;28;20345;-72
2023/10/21 11:29:42;;;;;;;;;;;33.00;50.90;;;;;;5034057;28;19915;-72
2023/10/21 11:32:12;;;;;;;;;;;32.00;50.50;;;;;;5033170;28;20356;-73
2023/10/21 11:34:37;;;;;;;;;;;32.00;51.70;;;;;;5034590;28;19909;-72
2023/10/21 11:37:04;;;;;;;;;;;32.40;54.30;;;;;;5034321;28;19912;-72
2023/10/21 11:39:31;;;;;;;;;;;32.60;54.90;;;;;;5016564;28;19905;-72
2023/10/21 11:41:56;;;;;;;;;;;32.50;53.90;;;;;;5033661;28;19955;-73
2023/10/21 11:44:26;;;;;;;;;;;32.30;52.10;;;;;;5016202;28;19908;-73
2023/10/21 11:46:56;;;;;;;;;;;32.20;53.30;;;;;;5016507;28;19905;-73
2023/10/21 11:49:23;;;;;;;;;;;32.60;53.80;;;;;;5033924;28;19951;-73
2023/10/21 11:51:49;;;;;;;;;;;32.80;49.80;;;;;;5034213;28;19909;-73
2023/10/21 12:13:25;;;;;;;;;;;31.60;50.80;;;;;;5034107;28;19920;-72
2023/10/21 12:34:29;;;;;;;;;;;30.40;52.00;;;;;;5034046;28;19916;-68
2023/10/21 12:42:26;;;;;;;;;;;30.10;54.10;;;;;;5033750;28;20242;-68
2023/10/21 12:44:54;;;;;;;;;;;30.40;53.60;;;;;;5033752;28;19912;-68
2023/10/21 12:47:19;;;;;;;;;;;30.80;52.80;;;;;;5033805;28;19911;-69
2023/10/21 12:49:48;;;;;;;;;;;31.20;52.70;;;;;;5015902;28;19909;-69
2023/10/21 12:52:15;;;;;;;;;;;30.90;53.00;;;;;;5032345;28;19992;-68
2023/10/21 12:54:40;;;;;;;;;;;31.20;53.10;;;;;;5034559;28;20000;-68
2023/10/21 12:57:08;;;;;;;;;;;30.70;53.50;;;;;;5036141;28;20019;-68
2023/10/21 12:59:33;;;;;;;;;;;30.90;52.90;;;;;;5019643;28;20363;-68
2023/10/21 13:01:59;;;;;;;;;;;31.00;52.90;;;;;;5037082;28;19905;-68
2023/10/21 13:04:24;;;;;;;;;;;30.60;53.20;;;;;;5037643;28;19928;-68
2023/10/21 13:06:50;;;;;;;;;;;30.00;54.80;;;;;;5019549;28;19912;-68
2023/10/21 13:09:23;;;;;;;;;;;29.70;54.90;;;;;;5019289;28;19905;-68
2023/10/21 13:11:52;;;;;;;;;;;28.90;56.00;;;;;;5035880;28;20409;-68
2023/10/21 13:14:17;;;;;;;;;;;29.10;56.10;;;;;;5037096;28;19911;-68
2023/10/21 13:16:43;;;;;;;;;;;28.80;56.70;;;;;;5037044;28;19905;-68
2023/10/21 13:19:08;;;;;;;;;;;29.00;57.50;;;;;;5037006;28;20004;-68
2023/10/21 13:21:35;;;;;;;;;;;29.70;57.00;;;;;;5031654;28;19916;-68
2023/10/21 13:24:04;;;;;;;;;;;29.70;55.20;;;;;;5037007;28;19905;-68
2023/10/21 13:26:30;;;;;;;;;;;28.50;57.60;;;;;;5036901;28;20260;-68
2023/10/21 13:28:56;;;;;;;;;;;27.90;58.50;;;;;;5037196;28;20213;-68
2023/10/21 13:31:22;;;;;;;;;;;27.10;60.00;;;;;;5051947;28;19916;-68
2023/10/21 13:33:47;;;;;;;;;;;26.00;61.40;;;;;;5052202;28;19909;-68
2023/10/21 13:36:13;;;;;;;;;;;25.20;63.90;;;;;;5052068;28;19931;-68
2023/10/21 13:38:38;;;;;;;;;;;24.70;65.60;;;;;;5036885;28;20348;-68
2023/10/21 13:41:05;;;;;;;;;;;24.50;67.70;;;;;;5036558;28;20368;-68
2023/10/21 13:43:30;;;;;;;;;;;24.30;68.40;;;;;;5036125;28;19955;-60
2023/10/21 13:45:56;;;;;;;;;;;24.00;71.40;;;;;;5035944;28;19951;-60
2023/10/21 13:48:21;;;;;;;;;;;23.80;73.80;;;;;;5034810;28;20250;-60
2023/10/21 13:50:50;;;;;;;;;;;23.40;75.20;;;;;;5051762;28;19909;-60
2023/10/21 13:53:17;;;;;;;;;;;23.10;76.40;;;;;;5051479;28;19920;-61
2023/10/21 13:55:43;;;;;;;;;;;22.80;77.50;;;;;;5034943;28;19909;-60
2023/10/21 13:58:09;;;;;;;;;;;22.70;79.20;;;;;;5036333;28;19990;-61
2023/10/21 14:00:35;;;;;;;;;;;22.60;80.20;;;;;;5036077;28;19909;-60
2023/10/21 14:03:08;;;;;;;;;;;22.40;81.10;;;;;;5052191;28;19912;-60
2023/10/21 14:05:44;;;;;;;;;;;22.40;79.40;;;;;;5035201;28;19913;-60
2023/10/21 14:08:11;;;;;;;;;;;22.30;84.10;;;;;;5051602;28;19928;-60
2023/10/21 14:10:37;;;;;;;;;;;22.10;85.50;;;;;;5029239;28;19913;-60
2023/10/21 14:13:03;;;;;;;;;;;21.90;86.80;;;;;;5016235;28;19983;-60
2023/10/21 14:15:30;;;;;;;;;;;21.80;89.40;;;;;;5049172;28;20284;-60
2023/10/21 14:17:56;;;;;;;;;;;21.70;90.50;;;;;;5048248;28;20378;-60
2023/10/21 14:20:22;;;;;;;;;;;21.50;91.00;;;;;;5032596;28;19996;-60
2023/10/21 14:22:48;;;;;;;;;;;21.40;92.00;;;;;;5034556;28;19996;-60
2023/10/21 14:25:14;;;;;;;;;;;21.40;92.80;;;;;;5051332;28;20365;-60
2023/10/21 14:27:40;;;;;;;;;;;21.30;94.10;;;;;;5022833;28;20349;-61
2023/10/21 14:30:10;;;;;;;;;;;21.10;95.40;;;;;;5014648;28;19909;-60
2023/10/21 14:32:36;;;;;;;;;;;21.10;96.00;;;;;;5015880;28;19909;-61
2023/10/21 14:35:04;;;;;;;;;;;21.10;97.30;;;;;;5016217;28;19905;-60
2023/10/21 14:37:30;;;;;;;;;;;21.10;98.70;;;;;;5035446;28;19909;-62
2023/10/21 14:39:56;;;;;;;;;;;21.10;99.30;;;;;;5035301;28;19949;-60
2023/10/21 14:42:21;;;;;;;;;;;21.00;99.50;;;;;;5035092;28;20296;-59
2023/10/21 14:50:13;;;;;;;;;;;20.90;99.90;;;;;;4325281;22;22689;-63
2023/10/21 14:52:38;;;;;;;;;;;20.80;99.90;;;;;;4994701;28;20419;-67
2023/10/21 14:55:05;;;;;;;;;;;20.70;99.90;;;;;;4995892;28;20008;-64
2023/10/21 14:57:32;;;;;;;;;;;20.50;99.90;;;;;;4995882;28;19906;-64
2023/10/21 14:59:58;;;;;;;;;;;20.40;99.90;;;;;;4995743;28;19912;-64
2023/10/21 15:02:23;;;;;;;;;;;20.40;99.90;;;;;;4995118;28;19910;-64